Time;durP1;ratioP1;P1;durP2;ratioP2;P2;SDS_P1;SDS_P2;PMS_P1;PMS_P2;Temp;Humidity;BMP_temperature;BMP_pressure;BME280_temperature;BME280_humidity;BME280_pressure;Samples;Min_cycle;Max_cycle;Signal;HPM_P1;HPM_P2
2021/06/19 00:01:31;;;;;;;15.15;5.60;;;24.40;99.90;;;;;;5027105;28;20091;-60
2021/06/19 00:03:56;;;;;;;20.08;6.90;;;24.30;99.90;;;;;;5027027;28;20025;-58
2021/06/19 00:06:22;;;;;;;18.42;5.82;;;24.20;99.90;;;;;;5027745;28;20116;-58
2021/06/19 00:08:49;;;;;;;13.68;5.72;;;24.00;99.90;;;;;;5027136;28;20488;-58
2021/06/19 00:11:14;;;;;;;14.30;5.47;;;23.90;99.90;;;;;;5024801;28;20021;-57
2021/06/19 00:13:40;;;;;;;13.63;6.00;;;23.70;99.90;;;;;;5028790;28;20099;-59
2021/06/19 00:16:05;;;;;;;13.13;5.97;;;23.70;99.90;;;;;;5023022;28;20566;-60
2021/06/19 00:18:32;;;;;;;17.27;6.03;;;23.70;99.90;;;;;;5020387;28;20029;-59
2021/06/19 00:20:58;;;;;;;17.20;5.72;;;23.50;99.90;;;;;;5029021;28;20091;-60
2021/06/19 00:23:24;;;;;;;16.38;6.15;;;23.40;99.90;;;;;;5027974;28;20105;-59
2021/06/19 00:25:50;;;;;;;16.05;6.63;;;23.30;99.90;;;;;;5025006;28;20056;-58
2021/06/19 00:28:15;;;;;;;15.98;6.10;;;23.20;99.90;;;;;;5028171;28;20341;-58
2021/06/19 00:30:41;;;;;;;18.58;5.68;;;23.20;99.90;;;;;;5027712;28;20372;-59
2021/06/19 00:33:07;;;;;;;12.82;5.80;;;23.20;99.90;;;;;;5028103;28;20021;-59
2021/06/19 00:35:32;;;;;;;15.15;6.90;;;23.10;99.90;;;;;;5024040;28;20355;-56
2021/06/19 00:37:58;;;;;;;10.95;6.05;;;23.10;99.90;;;;;;5026945;28;20030;-59
2021/06/19 00:40:24;;;;;;;14.57;5.80;;;23.10;99.90;;;;;;5028606;28;20041;-58
2021/06/19 00:43:02;;;;;;;12.75;5.30;;;23.10;99.90;;;;;;5028452;28;20026;-58
2021/06/19 00:45:33;;;;;;;11.70;4.97;;;23.20;99.90;;;;;;5027738;28;20448;-59
2021/06/19 00:47:59;;;;;;;14.60;4.20;;;23.30;99.90;;;;;;5027298;28;20029;-58
2021/06/19 00:50:26;;;;;;;11.20;4.63;;;23.30;99.90;;;;;;5027761;28;20030;-57
2021/06/19 00:52:52;;;;;;;10.73;4.38;;;23.40;99.90;;;;;;5027999;28;20034;-58
2021/06/19 00:55:19;;;;;;;9.40;4.68;;;23.30;99.90;;;;;;5027506;28;20025;-58
2021/06/19 00:57:45;;;;;;;10.55;4.70;;;23.10;99.90;;;;;;5027784;28;20021;-58
2021/06/19 01:00:11;;;;;;;9.95;4.97;;;23.00;99.90;;;;;;5012078;28;20104;-57
2021/06/19 01:02:39;;;;;;;6.57;4.35;;;22.90;99.90;;;;;;5030643;28;20018;-59
2021/06/19 01:05:06;;;;;;;19.85;4.72;;;22.90;99.90;;;;;;5030783;28;20014;-59
2021/06/19 01:07:32;;;;;;;10.77;4.20;;;22.90;99.90;;;;;;5025041;28;20680;-57
2021/06/19 01:09:57;;;;;;;10.50;4.65;;;22.80;99.90;;;;;;5029843;28;20060;-58
2021/06/19 01:12:23;;;;;;;12.70;4.80;;;22.70;99.90;;;;;;5031061;28;20553;-56
2021/06/19 01:14:50;;;;;;;18.42;4.90;;;22.70;99.90;;;;;;5031822;28;20041;-57
2021/06/19 01:17:16;;;;;;;12.52;4.63;;;22.70;99.90;;;;;;5028962;28;20037;-56
2021/06/19 01:19:42;;;;;;;12.13;4.40;;;22.60;99.90;;;;;;5026397;28;20091;-55
2021/06/19 01:22:07;;;;;;;15.15;4.30;;;22.60;99.90;;;;;;5013878;28;20059;-58
2021/06/19 01:24:33;;;;;;;11.88;4.28;;;22.60;99.90;;;;;;5031029;28;20475;-58
2021/06/19 01:26:59;;;;;;;8.27;4.10;;;22.50;99.90;;;;;;5029885;28;20580;-57
2021/06/19 01:29:24;;;;;;;12.88;4.35;;;22.50;99.90;;;;;;5030630;28;20032;-57
2021/06/19 01:31:51;;;;;;;16.33;4.10;;;22.40;99.90;;;;;;5030675;28;20404;-56
2021/06/19 01:34:17;;;;;;;11.23;4.45;;;22.30;99.90;;;;;;5031735;28;20120;-55
2021/06/19 01:36:42;;;;;;;11.32;4.22;;;22.30;99.90;;;;;;5027931;28;20113;-58
2021/06/19 01:39:08;;;;;;;13.93;4.65;;;22.20;99.90;;;;;;5029019;28;20025;-59
2021/06/19 01:41:34;;;;;;;11.10;5.22;;;22.20;99.90;;;;;;5031048;28;20048;-57
2021/06/19 01:44:02;;;;;;;7.30;4.20;;;22.10;99.90;;;;;;5028930;28;20128;-59
2021/06/19 01:46:29;;;;;;;9.43;4.90;;;22.10;99.90;;;;;;5029400;28;20637;-57
2021/06/19 01:48:54;;;;;;;11.70;4.95;;;22.00;99.90;;;;;;5030244;28;20029;-59
2021/06/19 01:51:20;;;;;;;7.47;4.45;;;21.90;99.90;;;;;;5030570;28;20096;-57
2021/06/19 01:53:49;;;;;;;11.07;4.82;;;21.90;99.90;;;;;;5028663;28;20048;-59
2021/06/19 01:56:15;;;;;;;10.20;4.93;;;21.80;99.90;;;;;;5028169;28;20087;-57
2021/06/19 01:58:41;;;;;;;13.02;4.88;;;21.70;99.90;;;;;;5030689;28;20053;-55
2021/06/19 02:01:10;;;;;;;10.63;4.88;;;21.60;99.90;;;;;;5026933;28;20033;-58
2021/06/19 02:03:36;;;;;;;9.90;4.63;;;21.60;99.90;;;;;;5029958;28;20036;-57
2021/06/19 02:06:02;;;;;;;12.90;5.00;;;21.50;99.90;;;;;;5030280;28;20037;-58
2021/06/19 02:08:28;;;;;;;9.57;4.70;;;21.50;99.90;;;;;;5030364;28;20021;-56
2021/06/19 02:10:57;;;;;;;14.55;4.90;;;21.50;99.90;;;;;;5029608;28;20033;-59
2021/06/19 02:13:23;;;;;;;6.97;3.88;;;21.50;99.90;;;;;;5029159;28;20606;-56
2021/06/19 02:15:49;;;;;;;11.27;4.72;;;21.40;99.90;;;;;;5029598;28;20029;-55
2021/06/19 02:18:15;;;;;;;9.70;5.00;;;21.40;99.90;;;;;;5030368;28;20037;-57
2021/06/19 02:20:41;;;;;;;13.95;4.35;;;21.40;99.90;;;;;;5030825;28;20053;-58
2021/06/19 02:23:06;;;;;;;15.27;5.63;;;21.40;99.90;;;;;;5030735;28;20104;-58
2021/06/19 02:25:32;;;;;;;14.98;5.35;;;21.40;99.90;;;;;;5026437;28;20026;-59
2021/06/19 02:28:07;;;;;;;10.55;5.57;;;21.30;99.90;;;;;;5030083;28;20022;-57
2021/06/19 02:30:33;;;;;;;8.50;5.10;;;21.30;99.90;;;;;;5029887;28;20025;-62
2021/06/19 02:32:59;;;;;;;13.75;5.43;;;21.30;99.90;;;;;;5028391;28;20112;-54
2021/06/19 02:35:29;;;;;;;8.25;4.80;;;21.30;99.90;;;;;;5028627;28;20539;-61
2021/06/19 02:37:55;;;;;;;11.65;5.55;;;21.20;99.90;;;;;;5030273;28;20033;-58
2021/06/19 02:40:21;;;;;;;8.40;4.75;;;21.20;99.90;;;;;;5029546;28;20096;-59
2021/06/19 02:42:46;;;;;;;9.30;5.53;;;21.20;99.90;;;;;;5029850;28;20116;-56
2021/06/19 02:45:13;;;;;;;13.02;4.88;;;21.00;99.90;;;;;;5029710;28;20040;-62
2021/06/19 02:47:43;;;;;;;10.32;5.03;;;20.90;99.90;;;;;;5028359;28;20374;-57
2021/06/19 02:50:11;;;;;;;10.70;5.28;;;20.70;99.90;;;;;;5030209;28;20029;-60
2021/06/19 02:52:41;;;;;;;10.20;5.03;;;20.60;99.90;;;;;;5030257;28;20072;-56
2021/06/19 02:55:13;;;;;;;9.70;5.72;;;20.50;99.90;;;;;;5029736;28;20080;-58
2021/06/19 02:57:39;;;;;;;15.48;6.22;;;20.40;99.90;;;;;;5028814;28;20033;-57
2021/06/19 03:00:06;;;;;;;14.77;5.72;;;20.30;99.90;;;;;;5026076;28;20216;-60
2021/06/19 03:02:32;;;;;;;18.67;6.35;;;20.30;99.90;;;;;;5028947;28;20064;-60
2021/06/19 03:04:57;;;;;;;18.75;6.40;;;20.30;99.90;;;;;;5029437;28;20052;-59
2021/06/19 03:07:23;;;;;;;15.10;6.28;;;20.20;99.90;;;;;;5031899;28;20530;-58
2021/06/19 03:09:49;;;;;;;9.90;5.70;;;20.10;99.90;;;;;;5029163;28;20095;-58
2021/06/19 03:12:14;;;;;;;19.85;6.50;;;20.10;99.90;;;;;;5029177;28;20025;-60
2021/06/19 03:14:40;;;;;;;8.13;6.05;;;20.10;99.90;;;;;;5029291;28;20030;-59
2021/06/19 03:17:06;;;;;;;11.60;5.88;;;20.10;99.90;;;;;;5028270;28;20109;-58
2021/06/19 03:19:31;;;;;;;17.48;5.57;;;20.00;99.90;;;;;;5028866;28;20089;-57
2021/06/19 03:21:58;;;;;;;13.25;5.70;;;20.00;99.90;;;;;;5029487;28;20037;-60
2021/06/19 03:24:24;;;;;;;13.27;5.68;;;19.90;99.90;;;;;;5029731;28;20057;-55
2021/06/19 03:26:49;;;;;;;16.77;6.65;;;19.90;99.90;;;;;;5027947;28;20479;-58
2021/06/19 03:29:15;;;;;;;9.18;5.90;;;19.90;99.90;;;;;;5028748;28;20091;-59
2021/06/19 03:31:41;;;;;;;15.05;5.40;;;19.90;99.90;;;;;;5028928;28;20395;-57
2021/06/19 03:34:06;;;;;;;12.73;5.85;;;20.00;99.90;;;;;;5025689;28;20029;-58
2021/06/19 03:36:32;;;;;;;13.13;5.75;;;19.90;99.90;;;;;;5028331;28;20179;-56
2021/06/19 03:38:57;;;;;;;13.57;6.20;;;19.90;99.90;;;;;;5028484;28;20033;-55
2021/06/19 03:41:23;;;;;;;13.05;6.05;;;19.90;99.90;;;;;;5029375;28;20047;-58
2021/06/19 03:43:49;;;;;;;13.55;5.80;;;19.90;99.90;;;;;;5029876;28;20041;-61
2021/06/19 03:46:14;;;;;;;13.07;5.78;;;19.90;99.90;;;;;;5027595;28;20025;-60
2021/06/19 03:48:40;;;;;;;13.32;5.30;;;20.00;99.90;;;;;;5006446;28;20485;-59
2021/06/19 03:51:05;;;;;;;11.75;5.47;;;20.00;99.90;;;;;;5026945;28;20341;-57
2021/06/19 03:53:31;;;;;;;9.52;4.60;;;20.00;99.90;;;;;;5029051;28;20040;-57
2021/06/19 03:55:56;;;;;;;12.18;5.47;;;20.00;99.90;;;;;;5028546;28;20025;-55
2021/06/19 03:58:22;;;;;;;13.63;5.20;;;20.00;99.90;;;;;;5025638;28;20693;-58
2021/06/19 04:00:47;;;;;;;13.85;5.20;;;19.90;99.90;;;;;;5026485;28;20032;-55
2021/06/19 04:03:13;;;;;;;9.27;5.53;;;19.80;99.90;;;;;;5028788;28;20029;-57
2021/06/19 04:05:38;;;;;;;9.10;5.38;;;19.80;99.90;;;;;;5027918;28;20040;-58
2021/06/19 04:08:04;;;;;;;10.35;5.40;;;19.80;99.90;;;;;;5024764;28;20100;-57
2021/06/19 04:10:30;;;;;;;16.63;6.03;;;19.80;99.90;;;;;;5028219;28;20022;-56
2021/06/19 04:12:55;;;;;;;9.45;5.63;;;19.80;99.90;;;;;;5027970;28;20497;-59
2021/06/19 04:15:21;;;;;;;13.13;5.40;;;19.80;99.90;;;;;;5029004;28;20041;-55
2021/06/19 04:17:47;;;;;;;10.55;5.07;;;19.80;99.90;;;;;;5027402;28;20049;-59
2021/06/19 04:20:14;;;;;;;8.55;5.38;;;19.90;99.90;;;;;;5028410;28;20502;-57
2021/06/19 04:22:41;;;;;;;15.65;4.80;;;19.90;99.90;;;;;;5028916;28;20037;-59
2021/06/19 04:25:08;;;;;;;12.13;5.05;;;19.90;99.90;;;;;;5028343;28;20022;-59
2021/06/19 04:27:39;;;;;;;10.05;4.75;;;20.00;99.90;;;;;;5021990;28;20109;-56
2021/06/19 04:30:07;;;;;;;10.93;5.57;;;20.00;99.90;;;;;;5027303;28;20025;-57
2021/06/19 04:32:32;;;;;;;10.88;5.20;;;20.00;99.90;;;;;;5028288;28;20052;-61
2021/06/19 04:34:58;;;;;;;9.95;5.18;;;20.10;99.90;;;;;;5029719;28;20544;-58
2021/06/19 04:37:26;;;;;;;5.78;4.03;;;20.10;99.90;;;;;;5032149;28;20372;-59
2021/06/19 04:39:56;;;;;;;8.70;4.75;;;20.20;99.90;;;;;;5032141;28;20037;-58
2021/06/19 04:42:25;;;;;;;7.72;4.28;;;20.30;99.90;;;;;;5032320;28;20029;-57
2021/06/19 04:47:19;;;;;;;11.70;4.28;;;20.40;99.90;;;;;;5031543;28;20080;-61
2021/06/19 04:49:45;;;;;;;8.50;4.18;;;20.50;99.90;;;;;;5032058;28;20033;-58
2021/06/19 04:52:10;;;;;;;7.50;3.67;;;20.60;99.90;;;;;;5032062;28;20104;-61
2021/06/19 04:54:39;;;;;;;5.70;3.25;;;20.70;99.90;;;;;;5032690;28;20760;-59
2021/06/19 04:57:06;;;;;;;11.95;4.10;;;20.70;99.90;;;;;;5031927;28;20037;-58
2021/06/19 04:59:33;;;;;;;7.05;4.05;;;20.80;99.90;;;;;;5031348;28;20064;-58
2021/06/19 05:01:59;;;;;;;5.65;4.18;;;20.80;99.90;;;;;;5029535;28;20022;-59
2021/06/19 05:04:24;;;;;;;6.07;3.53;;;20.80;99.90;;;;;;5031757;28;20696;-57
2021/06/19 05:06:50;;;;;;;8.50;3.60;;;20.90;99.90;;;;;;5031662;28;20488;-60
2021/06/19 05:09:15;;;;;;;8.48;4.05;;;20.90;99.90;;;;;;5031941;28;20036;-57
2021/06/19 05:11:41;;;;;;;4.43;3.30;;;20.90;99.90;;;;;;5031570;28;20398;-57
2021/06/19 05:14:06;;;;;;;4.32;3.50;;;21.00;99.90;;;;;;5031684;28;20455;-59
2021/06/19 05:16:32;;;;;;;11.80;3.45;;;21.10;99.90;;;;;;5031354;28;20426;-53
2021/06/19 05:18:58;;;;;;;9.45;4.35;;;21.20;99.90;;;;;;5031426;28;20088;-59
2021/06/19 05:21:23;;;;;;;15.13;4.15;;;21.20;99.90;;;;;;5029113;28;20026;-59
2021/06/19 05:23:49;;;;;;;5.65;3.70;;;21.30;99.90;;;;;;5031446;28;20033;-59
2021/06/19 05:26:14;;;;;;;5.13;3.75;;;21.40;99.90;;;;;;5031260;28;20442;-56
2021/06/19 05:28:40;;;;;;;8.82;4.10;;;21.40;99.90;;;;;;5014336;28;20476;-58
2021/06/19 05:31:06;;;;;;;8.43;3.80;;;21.40;99.90;;;;;;5030375;28;20026;-58
2021/06/19 05:33:32;;;;;;;5.72;4.03;;;21.50;99.90;;;;;;5030938;28;20639;-59
2021/06/19 05:35:57;;;;;;;8.48;3.67;;;21.50;99.90;;;;;;5030356;28;20025;-61
2021/06/19 05:38:23;;;;;;;12.93;3.97;;;21.50;99.90;;;;;;5031187;28;20402;-59
2021/06/19 05:40:48;;;;;;;9.07;3.97;;;21.50;99.90;;;;;;5031070;28;20095;-59
2021/06/19 05:43:14;;;;;;;9.45;3.60;;;21.60;99.90;;;;;;5031504;28;20040;-59
2021/06/19 05:45:40;;;;;;;5.82;3.75;;;21.70;99.90;;;;;;5028845;28;20124;-60
2021/06/19 05:48:05;;;;;;;6.97;3.60;;;21.70;99.90;;;;;;5030735;28;20067;-58
2021/06/19 05:50:31;;;;;;;5.00;3.20;;;21.80;99.90;;;;;;5030642;28;20079;-57
2021/06/19 05:52:57;;;;;;;10.73;2.70;;;21.90;99.90;;;;;;5030571;28;20034;-60
2021/06/19 05:55:22;;;;;;;3.70;2.08;;;22.00;99.90;;;;;;5030071;28;20029;-60
2021/06/19 05:57:48;;;;;;;6.05;2.55;;;22.10;99.90;;;;;;5030934;28;20026;-59
2021/06/19 06:00:14;;;;;;;4.68;2.20;;;22.20;99.90;;;;;;5029858;28;20084;-54
2021/06/19 06:02:41;;;;;;;3.20;2.03;;;22.30;99.90;;;;;;5030051;28;20064;-54
2021/06/19 06:05:08;;;;;;;3.50;2.10;;;22.30;99.90;;;;;;5030240;28;20474;-60
2021/06/19 06:07:33;;;;;;;1.88;1.60;;;22.30;99.90;;;;;;5029822;28;20025;-59
2021/06/19 06:09:59;;;;;;;1.58;1.48;;;22.40;99.90;;;;;;5029998;28;20025;-61
2021/06/19 06:12:24;;;;;;;3.78;1.70;;;22.40;99.90;;;;;;5025616;28;20061;-59
2021/06/19 06:14:50;;;;;;;2.83;2.10;;;22.40;99.90;;;;;;5030589;28;20034;-59
2021/06/19 06:17:16;;;;;;;4.22;1.70;;;22.40;99.90;;;;;;5029133;28;20484;-59
2021/06/19 06:19:41;;;;;;;3.70;1.70;;;22.50;99.90;;;;;;5029820;28;20053;-61
2021/06/19 06:22:07;;;;;;;6.55;1.48;;;22.60;99.90;;;;;;5030933;28;20476;-62
2021/06/19 06:24:33;;;;;;;6.00;2.00;;;22.50;99.90;;;;;;5030206;28;20119;-60
2021/06/19 06:26:59;;;;;;;3.38;1.15;;;22.60;99.90;;;;;;5030262;28;20034;-57
2021/06/19 06:29:25;;;;;;;2.33;1.75;;;22.60;99.90;;;;;;5028202;28;20081;-56
2021/06/19 06:31:51;;;;;;;5.07;1.73;;;22.60;99.90;;;;;;5030262;28;20081;-60
2021/06/19 06:34:18;;;;;;;5.85;1.70;;;22.70;99.90;;;;;;5012042;28;20124;-60
2021/06/19 06:36:43;;;;;;;7.50;1.75;;;22.70;99.90;;;;;;5029609;28;20040;-55
2021/06/19 06:39:09;;;;;;;4.13;1.70;;;22.70;99.90;;;;;;5024437;28;20033;-56
2021/06/19 06:41:35;;;;;;;6.35;1.33;;;22.80;99.90;;;;;;5021805;28;20030;-60
2021/06/19 06:44:01;;;;;;;4.45;1.58;;;22.80;99.90;;;;;;5029664;28;20507;-60
2021/06/19 06:46:26;;;;;;;2.00;1.38;;;22.80;99.90;;;;;;5029705;28;20025;-57
2021/06/19 06:48:52;;;;;;;2.85;1.10;;;22.80;99.90;;;;;;5023083;28;20087;-54
2021/06/19 06:51:17;;;;;;;2.03;1.30;;;22.90;99.90;;;;;;5028967;28;20493;-56
2021/06/19 06:53:43;;;;;;;5.70;1.85;;;22.90;99.90;;;;;;5029720;28;20041;-57
2021/06/19 06:56:09;;;;;;;3.47;1.35;;;23.00;99.90;;;;;;5027835;28;20060;-59
2021/06/19 06:58:34;;;;;;;4.78;1.48;;;22.90;99.90;;;;;;5029512;28;20030;-64
2021/06/19 07:01:00;;;;;;;5.80;1.70;;;23.00;99.90;;;;;;5028067;28;20364;-64
2021/06/19 07:03:26;;;;;;;4.20;1.55;;;23.00;99.90;;;;;;5026856;28;20026;-63
2021/06/19 07:05:52;;;;;;;3.13;1.52;;;23.00;99.90;;;;;;5025479;28;20041;-65
2021/06/19 07:08:18;;;;;;;1.75;1.17;;;23.00;99.90;;;;;;5031219;28;20030;-65
2021/06/19 07:10:43;;;;;;;5.78;1.60;;;23.10;99.90;;;;;;5026568;28;20025;-63
2021/06/19 07:13:09;;;;;;;3.45;1.48;;;23.00;99.90;;;;;;5028716;28;20037;-65
2021/06/19 07:15:35;;;;;;;2.88;1.60;;;23.10;99.90;;;;;;5023688;28;20045;-65
2021/06/19 07:18:01;;;;;;;2.55;1.52;;;23.10;99.90;;;;;;5029707;28;20415;-62
2021/06/19 07:20:27;;;;;;;2.75;1.60;;;23.20;99.90;;;;;;5034840;28;20529;-64
2021/06/19 07:22:52;;;;;;;4.32;1.42;;;23.30;99.90;;;;;;5031785;28;20418;-63
2021/06/19 07:25:18;;;;;;;2.15;1.30;;;23.30;99.90;;;;;;5034484;28;20068;-63
2021/06/19 07:27:47;;;;;;;3.65;0.93;;;23.30;99.90;;;;;;5038351;28;20049;-63
2021/06/19 07:30:13;;;;;;;3.30;1.38;;;23.30;99.90;;;;;;5018925;28;20139;-63
2021/06/19 07:32:39;;;;;;;12.40;3.88;;;23.30;99.90;;;;;;5032885;28;20045;-63
2021/06/19 07:35:06;;;;;;;5.20;2.28;;;23.40;99.90;;;;;;5036316;28;20105;-63
2021/06/19 07:37:32;;;;;;;3.25;1.67;;;23.40;99.90;;;;;;5025194;28;20511;-65
2021/06/19 07:39:58;;;;;;;1.27;1.02;;;23.40;99.90;;;;;;5025657;28;20120;-64
2021/06/19 07:42:23;;;;;;;4.75;1.17;;;23.40;99.90;;;;;;5027571;28;20033;-63
2021/06/19 07:44:50;;;;;;;4.93;1.33;;;23.50;99.90;;;;;;5035971;28;20071;-63
2021/06/19 07:47:16;;;;;;;3.08;1.10;;;23.60;99.90;;;;;;5033665;28;20075;-63
2021/06/19 07:49:41;;;;;;;4.88;1.50;;;23.70;99.90;;;;;;5031339;28;20017;-63
2021/06/19 07:52:07;;;;;;;2.00;1.00;;;23.70;99.90;;;;;;5024567;28;20037;-62
2021/06/19 07:54:36;;;;;;;2.35;0.95;;;23.70;99.90;;;;;;5029543;28;20040;-64
2021/06/19 07:57:04;;;;;;;1.08;0.95;;;23.70;99.90;;;;;;5024711;28;20102;-63
2021/06/19 07:59:30;;;;;;;4.22;1.30;;;23.80;99.90;;;;;;5027786;28;20562;-63
2021/06/19 08:01:55;;;;;;;4.78;1.05;;;23.80;99.90;;;;;;5030194;28;20163;-63
2021/06/19 08:04:21;;;;;;;3.10;0.95;;;23.80;99.90;;;;;;5004773;28;20094;-64
2021/06/19 08:06:46;;;;;;;6.20;0.98;;;23.90;99.90;;;;;;5025119;28;20036;-64
2021/06/19 08:09:12;;;;;;;2.88;1.10;;;24.00;99.90;;;;;;5023212;28;20140;-64
2021/06/19 08:11:38;;;;;;;5.90;1.33;;;24.00;99.90;;;;;;5011500;28;20025;-64
2021/06/19 08:14:04;;;;;;;3.70;1.25;;;24.10;99.90;;;;;;5025544;28;20409;-64
2021/06/19 08:16:30;;;;;;;2.35;0.88;;;24.20;99.90;;;;;;5017163;28;20033;-64
2021/06/19 08:18:55;;;;;;;2.88;1.13;;;24.10;99.90;;;;;;5022003;28;20036;-64
2021/06/19 08:21:22;;;;;;;1.92;1.00;;;24.10;99.90;;;;;;5025096;28;20022;-64
2021/06/19 08:23:47;;;;;;;3.22;1.00;;;24.10;99.90;;;;;;5023038;28;20078;-63
2021/06/19 08:26:13;;;;;;;15.27;3.75;;;24.20;99.90;;;;;;5027519;28;20026;-66
2021/06/19 08:28:38;;;;;;;2.53;1.50;;;24.20;99.90;;;;;;5025841;28;20450;-64
2021/06/19 08:31:04;;;;;;;5.13;1.67;;;24.40;99.90;;;;;;5026175;28;20111;-64
2021/06/19 08:33:31;;;;;;;11.05;2.20;;;24.40;99.90;;;;;;5026461;28;20025;-64
2021/06/19 08:35:56;;;;;;;10.60;1.75;;;24.50;99.90;;;;;;5005674;28;20524;-63
2021/06/19 08:38:22;;;;;;;5.07;0.90;;;24.60;99.90;;;;;;5018666;28;20029;-64
2021/06/19 08:40:48;;;;;;;3.78;1.23;;;24.60;99.90;;;;;;5020890;28;20399;-64
2021/06/19 08:43:17;;;;;;;3.95;1.55;;;24.70;99.90;;;;;;5025984;28;20029;-64
2021/06/19 08:45:45;;;;;;;4.70;1.00;;;24.80;99.90;;;;;;5023245;28;20116;-65
2021/06/19 08:48:11;;;;;;;6.38;1.23;;;24.90;99.90;;;;;;5024677;28;20402;-65
2021/06/19 08:50:39;;;;;;;2.03;1.00;;;25.00;99.90;;;;;;5028766;28;20022;-66
2021/06/19 08:53:05;;;;;;;3.90;1.30;;;25.00;99.90;;;;;;5028147;28;20523;-65
2021/06/19 08:55:30;;;;;;;1.23;1.05;;;25.10;99.90;;;;;;5026570;28;20103;-65
2021/06/19 08:57:56;;;;;;;2.28;0.82;;;25.20;99.90;;;;;;5025666;28;20395;-64
2021/06/19 09:00:22;;;;;;;1.00;0.90;;;25.10;99.90;;;;;;5025386;28;20026;-65
2021/06/19 09:02:48;;;;;;;3.20;0.80;;;25.30;99.90;;;;;;5028104;28;20104;-65
2021/06/19 09:05:17;;;;;;;1.83;1.08;;;25.40;99.90;;;;;;5028157;28;20529;-65
2021/06/19 09:07:48;;;;;;;2.05;0.90;;;25.50;99.90;;;;;;5026428;28;20602;-65
2021/06/19 09:10:28;;;;;;;2.30;1.15;;;25.60;99.90;;;;;;5023103;28;20025;-65
2021/06/19 09:13:14;;;;;;;1.92;1.10;;;25.70;99.90;;;;;;5027677;28;20048;-65
2021/06/19 09:15:48;;;;;;;2.28;1.13;;;25.80;99.90;;;;;;5028167;28;20069;-65
2021/06/19 09:18:28;;;;;;;5.72;1.20;;;25.80;99.90;;;;;;5027306;28;20033;-64
2021/06/19 09:21:04;;;;;;;6.35;1.20;;;25.90;99.90;;;;;;5031640;28;20407;-64
2021/06/19 09:23:37;;;;;;;1.73;0.98;;;26.00;99.90;;;;;;5026325;28;20057;-64
2021/06/19 09:26:17;;;;;;;2.47;1.08;;;26.10;99.90;;;;;;5031589;28;20017;-65
2021/06/19 09:29:02;;;;;;;1.75;1.15;;;25.90;99.90;;;;;;5028116;28;20026;-64
2021/06/19 09:31:36;;;;;;;1.40;1.23;;;26.00;99.90;;;;;;5031844;28;20037;-64
2021/06/19 09:34:10;;;;;;;3.85;1.10;;;26.10;99.90;;;;;;5032166;28;20036;-64
2021/06/19 09:36:36;;;;;;;;;;;26.20;99.90;;;;;;5031169;28;20083;-64
2021/06/19 09:39:07;;;;;;;3.15;1.13;;;26.20;99.90;;;;;;5032567;28;19909;-65
2021/06/19 09:41:34;;;;;;;3.90;0.90;;;26.40;99.90;;;;;;5032405;28;20040;-65
2021/06/19 09:44:00;;;;;;;3.50;1.00;;;26.60;99.90;;;;;;5027018;28;20339;-65
2021/06/19 09:46:25;;;;;;;2.17;1.10;;;26.80;99.90;;;;;;5029001;28;20022;-65
2021/06/19 09:48:51;;;;;;;2.95;1.00;;;27.00;99.90;;;;;;5030196;28;20483;-65
2021/06/19 09:51:20;;;;;;;2.78;1.00;;;27.20;99.90;;;;;;5032166;28;20060;-66
2021/06/19 09:54:01;;;;;;;1.35;0.90;;;27.50;99.90;;;;;;5032040;28;20114;-65
2021/06/19 09:56:27;;;;;;;2.53;1.00;;;27.60;99.90;;;;;;5031055;28;20101;-66
2021/06/19 09:58:55;;;;;;;3.83;0.98;;;27.90;99.90;;;;;;5031274;28;20458;-65
2021/06/19 10:01:35;;;;;;;2.10;1.08;;;28.00;99.90;;;;;;5031491;28;20048;-65
2021/06/19 10:04:02;;;;;;;3.33;1.30;;;28.20;99.90;;;;;;5031081;28;20051;-65
2021/06/19 10:06:29;;;;;;;2.50;1.70;;;28.30;99.90;;;;;;5031666;28;20080;-65
2021/06/19 10:08:56;;;;;;;3.08;1.42;;;28.50;99.90;;;;;;5025016;28;20112;-65
2021/06/19 10:11:25;;;;;;;3.00;1.58;;;28.50;99.90;;;;;;5025742;28;20440;-65
2021/06/19 10:13:53;;;;;;;1.42;1.17;;;28.20;99.90;;;;;;5031331;28;20622;-65
2021/06/19 10:16:18;;;;;;;5.03;1.40;;;27.90;99.90;;;;;;5027923;28;20030;-64
2021/06/19 10:18:46;;;;;;;6.15;1.40;;;28.00;99.90;;;;;;5026798;28;20036;-64
2021/06/19 10:21:14;;;;;;;5.40;1.30;;;28.10;99.90;;;;;;5026957;28;20018;-65
2021/06/19 10:23:41;;;;;;;13.88;2.33;;;28.10;99.90;;;;;;5030852;28;20041;-64
2021/06/19 10:26:07;;;;;;;8.90;1.58;;;28.30;99.90;;;;;;5030288;28;20026;-65
2021/06/19 10:28:37;;;;;;;2.53;1.20;;;28.50;99.90;;;;;;5031198;28;20021;-65
2021/06/19 10:31:02;;;;;;;1.55;1.20;;;28.80;99.90;;;;;;5028988;28;20030;-64
2021/06/19 10:33:30;;;;;;;2.17;1.10;;;29.10;99.90;;;;;;5008852;28;20025;-64
2021/06/19 10:36:17;;;;;;;2.95;1.27;;;29.60;99.90;;;;;;5032265;28;20390;-65
2021/06/19 10:38:49;;;;;;;4.30;1.30;;;29.60;99.90;;;;;;5027692;28;20042;-65
2021/06/19 10:41:16;;;;;;;1.83;1.15;;;30.00;99.90;;;;;;5031003;28;20547;-64
2021/06/19 10:43:49;;;;;;;1.92;1.00;;;29.80;99.90;;;;;;5025835;28;20029;-64
2021/06/19 10:46:33;;;;;;;4.20;1.52;;;29.90;99.90;;;;;;5029751;28;20483;-64
2021/06/19 10:49:19;;;;;;;2.67;1.33;;;30.20;99.90;;;;;;5027325;28;20017;-66
2021/06/19 10:51:45;;;;;;;5.10;1.38;;;30.50;99.90;;;;;;5030206;28;20025;-64
2021/06/19 10:54:18;;;;;;;4.45;1.40;;;30.30;99.90;;;;;;5026079;28;20580;-65
2021/06/19 10:56:53;;;;;;;9.10;1.33;;;30.40;99.90;;;;;;5035171;28;20363;-66
2021/06/19 10:59:32;;;;;;;6.97;1.70;;;30.30;99.50;;;;;;5024373;28;20403;-64
2021/06/19 11:02:03;;;;;;;3.13;1.90;;;30.50;99.00;;;;;;5030747;28;20080;-64
2021/06/19 11:04:41;;;;;;;3.67;1.20;;;30.70;99.90;;;;;;5028995;28;20546;-65
2021/06/19 11:07:29;;;;;;;2.72;1.13;;;30.20;98.10;;;;;;5030223;28;20030;-65
2021/06/19 11:09:54;;;;;;;3.38;1.42;;;30.30;98.80;;;;;;5012093;28;20105;-65
2021/06/19 11:12:32;;;;;;;6.43;1.38;;;30.40;99.10;;;;;;5028976;28;20506;-65
2021/06/19 11:14:59;;;;;;;4.00;1.20;;;30.40;98.60;;;;;;5027656;28;20357;-65
2021/06/19 11:17:25;;;;;;;3.92;1.40;;;30.30;98.40;;;;;;5028806;28;20029;-65
2021/06/19 11:19:58;;;;;;;4.03;1.10;;;30.50;99.90;;;;;;5029354;28;20391;-65
2021/06/19 11:22:32;;;;;;;1.73;1.27;;;30.70;99.70;;;;;;5028140;28;20021;-65
2021/06/19 11:25:32;;;;;;;3.95;1.50;;;30.80;99.10;;;;;;5023498;28;20032;-64
2021/06/19 11:28:20;;;;;;;7.18;1.50;;;30.80;98.10;;;;;;5023549;28;20021;-66
2021/06/19 11:30:52;;;;;;;3.72;1.50;;;31.10;98.60;;;;;;5026513;28;20336;-66
2021/06/19 11:33:21;;;;;;;5.07;1.50;;;30.80;98.30;;;;;;5021294;28;20036;-65
2021/06/19 11:36:07;;;;;;;8.63;1.20;;;30.70;99.90;;;;;;5020329;28;20033;-64
2021/06/19 11:38:48;;;;;;;1.98;1.42;;;30.80;97.40;;;;;;5020829;28;20448;-64
2021/06/19 11:41:16;;;;;;;2.40;1.25;;;31.30;98.00;;;;;;5030507;28;20522;-65
2021/06/19 11:43:44;;;;;;;3.60;1.80;;;31.50;97.50;;;;;;5021150;28;20040;-65
2021/06/19 11:46:10;;;;;;;3.47;1.55;;;31.90;97.40;;;;;;5028575;28;20108;-65
2021/06/19 11:48:50;;;;;;;2.67;1.77;;;32.20;96.30;;;;;;5009632;28;20021;-65
2021/06/19 11:51:18;;;;;;;4.13;1.55;;;32.60;95.40;;;;;;5028725;28;20028;-65
2021/06/19 11:53:43;;;;;;;3.92;1.73;;;32.30;95.00;;;;;;5027677;28;20034;-65
2021/06/19 11:56:15;;;;;;;5.18;1.67;;;32.20;96.60;;;;;;5032959;28;20458;-65
2021/06/19 11:58:54;;;;;;;3.75;1.50;;;32.30;98.10;;;;;;5030609;28;20033;-67
2021/06/19 12:01:40;;;;;;;3.20;1.70;;;32.10;96.40;;;;;;5032912;28;20378;-64
2021/06/19 12:04:07;;;;;;;9.57;2.17;;;32.00;96.30;;;;;;5027617;28;20030;-64
2021/06/19 12:06:38;;;;;;;5.00;1.52;;;32.30;96.80;;;;;;5033033;28;20021;-65
2021/06/19 12:09:25;;;;;;;7.18;1.70;;;32.00;94.20;;;;;;5032068;28;20026;-65
2021/06/19 12:11:57;;;;;;;5.88;1.67;;;31.90;94.90;;;;;;5028346;28;20021;-65
2021/06/19 12:14:28;;;;;;;2.75;1.50;;;31.60;96.10;;;;;;5031911;28;20029;-65
2021/06/19 12:16:57;;;;;;;5.20;1.88;;;31.60;95.00;;;;;;5031731;28;20041;-65
2021/06/19 12:19:25;;;;;;;3.28;1.58;;;31.60;96.40;;;;;;5027037;28;20022;-64
2021/06/19 12:21:55;;;;;;;3.72;2.10;;;32.00;98.30;;;;;;5031056;28;20454;-64
2021/06/19 12:24:41;;;;;;;6.15;1.40;;;32.30;96.40;;;;;;5026985;28;20033;-65
2021/06/19 12:27:20;;;;;;;1.42;1.30;;;32.60;97.30;;;;;;5029883;28;20026;-64
2021/06/19 12:29:47;;;;;;;3.67;1.30;;;32.50;96.60;;;;;;5027948;28;20372;-65
2021/06/19 12:32:20;;;;;;;1.60;1.40;;;32.10;98.40;;;;;;5031300;28;20472;-65
2021/06/19 12:34:46;;;;;;;5.95;1.55;;;31.70;95.30;;;;;;5021160;28;20178;-65
2021/06/19 12:37:11;;;;;;;3.75;1.80;;;31.50;95.80;;;;;;5027780;28;20148;-65
2021/06/19 12:39:38;;;;;;;3.97;1.52;;;31.00;95.30;;;;;;5027718;28;20457;-65
2021/06/19 12:42:04;;;;;;;3.25;1.58;;;30.90;97.00;;;;;;5022754;28;20029;-65
2021/06/19 12:44:30;;;;;;;2.45;1.30;;;31.10;96.60;;;;;;5021127;28;20255;-65
2021/06/19 12:47:15;;;;;;;6.82;1.98;;;31.00;98.80;;;;;;5025350;28;20043;-65
2021/06/19 12:49:57;;;;;;;7.40;1.90;;;31.50;97.80;;;;;;5023688;28;20160;-65